Aérodrome :
LOGIN :

S'inscrire | Disclaimer

   EN    FR    IT 

 










Légende :    VFR   VFR Marginal   IFR   IFR Intensif   IFR Très Intensif
Visi : 
Plafond : 
>= 8 km
>= 3000ft
5 à 8 km
1000 à 3000 ft
1500m à 5 km
500 à 1000 ft
800 à 1500m
200 à 500 ft
< 800m
< 200 ft
Symboles :   Orages  Brouillard  Fortes neiges  Fortes précipitations  Vent > 20 kt
SIGMETs :   Divers  Orages  Givrage  Turbulence  Onde Orograph.  Cendres Volcan.






- Altitude de l'aérodrome : 200 ft


EBBL - Klein Brogel AB

DERNIER METAR :
  • 171925Z AUTO 26008KT 9999 BKN008/// BKN026/// 04/04 Q1023 GRN

METARs EXPIRÉS :
  • 171921Z AUTO 26008KT 9999 SCT007/// BKN020/// 04/03 Q1023 GRN
  • 171855Z AUTO 26007KT 9999 BKN021/// 05/04 Q1023 WHT
  • 171847Z AUTO 26007KT 9999 BKN023/// 05/04 Q1023 WHT
  • 171825Z AUTO 26007KT 9999 BKN020/// 05/04 Q1023 WHT
  • 171803Z AUTO 26006KT 9999 SCT019/// BKN037/// BKN063/// 05/04 Q1022 WHT
  • 171743Z AUTO 26006KT 9999 BKN028/// 04/03 Q1022 BLU
  • 171725Z AUTO 26006KT 9999 OVC014/// 05/04 Q1022 GRN
  • 171706Z AUTO 26008KT 9999 -DZ SCT013/// OVC028/// 05/04 Q1022 GRN
  • 171655Z AUTO 27007KT 9999 OVC028/// 05/04 Q1022 BLU

TAF TAF EBBL
Valide du 17 à 19h jusqu'au 18 à 07h UTC


171541Z 1719/1807 27007KT 5000 BR SCT010 BKN030
BECMG 1804/1806 24005KT 2000 BR SCT003 BKN007
PROB30
TEMPO 1805/1807 1000 BR SCT002 BKN003



MET'MAP, la Météo Aéronautique d'un coup d'oeil ! - Copyright ORBIFLY Décembre 2007 - Disclaimer

ORBIFLY MET'MAP TEAM :

Programmation & Développement : Alexandra Zaïnal
Sur une idée originale de : Baudouin d'Aumeries
Assistance à la programmation : Marc-Olivier Méhu
Soutien technique & logistique : Manuel Goepfert

Contact : metmap@orbifly.com




SOURCES & CREDITS :

   NOAA